EZS62LY LATI-LSGG
Flight info
| Callsign | EZS62LY |
|---|---|
| Flight time | 1h 57m |
| Altitude | 18000 |
| Route | INLOT2R INLOT L604 RETRA/N0447F380 DCT POD DCT BARIT DCT UNIPA DCT ULPIN DCT LABIN DCT OTKEK DCT VAKON DCT SRN DCT OMETO DCT TERSI DCT AOSTA/N0370F220 L615 BANKO BANKO3N |
| Aircraft | A320/M-SDE3FGHIRWY/LB1 |
Departure
| Time | 2026-05-08 17:56 |
|---|---|
| Airport | Tirana International Airport Mother Teresa (LATI) |
Arrival
| Time | 2026-05-08 19:54 |
|---|---|
| Airport | Geneva International Airport (LSGG) |
| Time | Latitude | Longitude | Altitude | Speed | Heading |
|---|---|---|---|---|---|
| 2026-05-08 17:26 | 41.41988 | 19.71515 | 116 ft | 0 kts | 265° |
| 2026-05-08 17:47 | 41.41989 | 19.71535 | 115 ft | 4 kts | 274° |
| 2026-05-08 17:47 | 41.41983 | 19.71567 | 116 ft | 4 kts | 314° |
| 2026-05-08 17:47 | 41.41971 | 19.71578 | 115 ft | 3 kts | 352° |
| 2026-05-08 17:48 | 41.41967 | 19.71579 | 115 ft | 0 kts | 355° |
| 2026-05-08 17:49 | 41.41975 | 19.71578 | 115 ft | 6 kts | 355° |
| 2026-05-08 17:50 | 41.42011 | 19.71573 | 116 ft | 12 kts | 355° |
| 2026-05-08 17:50 | 41.42097 | 19.71561 | 116 ft | 11 kts | 354° |
| 2026-05-08 17:50 | 41.42174 | 19.71552 | 114 ft | 13 kts | 354° |
| 2026-05-08 17:50 | 41.42272 | 19.71539 | 113 ft | 16 kts | 354° |
| 2026-05-08 17:51 | 41.42393 | 19.71524 | 113 ft | 19 kts | 355° |
| 2026-05-08 17:51 | 41.42509 | 19.71510 | 115 ft | 15 kts | 354° |
| 2026-05-08 17:51 | 41.42598 | 19.71498 | 115 ft | 11 kts | 354° |
| 2026-05-08 17:51 | 41.42671 | 19.71506 | 114 ft | 11 kts | 46° |
| 2026-05-08 17:52 | 41.42677 | 19.71635 | 105 ft | 19 kts | 85° |
| 2026-05-08 17:52 | 41.42680 | 19.71700 | 114 ft | 0 kts | 86° |
| 2026-05-08 17:53 | 41.42683 | 19.71753 | 114 ft | 11 kts | 85° |
| 2026-05-08 17:53 | 41.42689 | 19.71853 | 115 ft | 10 kts | 85° |
| 2026-05-08 17:54 | 41.42653 | 19.71901 | 115 ft | 6 kts | 175° |
| 2026-05-08 17:54 | 41.42651 | 19.71901 | 114 ft | 0 kts | 175° |
| 2026-05-08 17:56 | 41.42541 | 19.71914 | 114 ft | 49 kts | 175° |
| 2026-05-08 17:56 | 41.41951 | 19.71994 | 118 ft | 117 kts | 174° |
| 2026-05-08 17:56 | 41.40975 | 19.72120 | 238 ft | 156 kts | 175° |
| 2026-05-08 17:56 | 41.39915 | 19.72253 | 973 ft | 153 kts | 173° |
| 2026-05-08 17:57 | 41.38833 | 19.72395 | 1544 ft | 164 kts | 172° |
| 2026-05-08 17:57 | 41.37622 | 19.72559 | 1906 ft | 186 kts | 173° |
| 2026-05-08 17:57 | 41.36255 | 19.72744 | 2235 ft | 208 kts | 173° |
| 2026-05-08 17:57 | 41.34747 | 19.72944 | 2684 ft | 228 kts | 174° |
| 2026-05-08 17:58 | 41.33085 | 19.73052 | 3223 ft | 249 kts | 188° |
| 2026-05-08 17:58 | 41.31480 | 19.72174 | 4066 ft | 255 kts | 218° |
| 2026-05-08 17:58 | 41.30396 | 19.70314 | 5048 ft | 259 kts | 246° |
| 2026-05-08 17:58 | 41.29877 | 19.68010 | 6024 ft | 261 kts | 255° |
| 2026-05-08 17:59 | 41.29780 | 19.65586 | 6945 ft | 266 kts | 272° |
| 2026-05-08 17:59 | 41.30163 | 19.63163 | 7824 ft | 273 kts | 292° |
| 2026-05-08 17:59 | 41.31320 | 19.61131 | 8675 ft | 284 kts | 318° |
| 2026-05-08 17:59 | 41.33054 | 19.59809 | 9531 ft | 292 kts | 333° |
| 2026-05-08 18:00 | 41.34957 | 19.58786 | 10243 ft | 303 kts | 339° |
| 2026-05-08 18:00 | 41.39423 | 19.57698 | 10972 ft | 342 kts | 348° |
| 2026-05-08 18:00 | 41.41792 | 19.57210 | 11713 ft | 347 kts | 349° |
| 2026-05-08 18:01 | 41.44188 | 19.56723 | 12511 ft | 350 kts | 348° |
| 2026-05-08 18:01 | 41.46601 | 19.56228 | 13283 ft | 353 kts | 348° |
| 2026-05-08 18:01 | 41.49040 | 19.55723 | 14024 ft | 356 kts | 348° |
| 2026-05-08 18:01 | 41.51496 | 19.55209 | 14691 ft | 359 kts | 348° |
| 2026-05-08 18:02 | 41.53983 | 19.54681 | 15355 ft | 363 kts | 348° |
| 2026-05-08 18:02 | 41.55642 | 19.54328 | 15767 ft | 366 kts | 348° |
| 2026-05-08 18:02 | 41.58991 | 19.53615 | 16605 ft | 371 kts | 348° |
| 2026-05-08 18:02 | 41.61555 | 19.53066 | 17233 ft | 375 kts | 348° |
| 2026-05-08 18:03 | 41.64178 | 19.52507 | 17863 ft | 379 kts | 348° |
| 2026-05-08 18:03 | 41.66797 | 19.51952 | 18445 ft | 383 kts | 348° |
| 2026-05-08 18:03 | 41.69400 | 19.51400 | 18977 ft | 386 kts | 348° |
| 2026-05-08 18:03 | 41.72097 | 19.50825 | 19547 ft | 388 kts | 348° |
| 2026-05-08 18:04 | 41.74780 | 19.50252 | 20114 ft | 391 kts | 348° |
| 2026-05-08 18:04 | 41.77471 | 19.49679 | 20648 ft | 393 kts | 348° |
| 2026-05-08 18:04 | 41.80148 | 19.49109 | 21179 ft | 396 kts | 348° |
| 2026-05-08 18:04 | 41.82882 | 19.48530 | 21696 ft | 399 kts | 348° |
| 2026-05-08 18:05 | 41.85625 | 19.47950 | 22218 ft | 401 kts | 348° |
| 2026-05-08 18:05 | 41.88389 | 19.47362 | 22745 ft | 404 kts | 348° |
| 2026-05-08 18:05 | 41.91175 | 19.46765 | 23253 ft | 406 kts | 348° |
| 2026-05-08 18:05 | 41.93971 | 19.46163 | 23715 ft | 409 kts | 348° |
| 2026-05-08 18:06 | 41.96794 | 19.45550 | 24117 ft | 411 kts | 347° |
| 2026-05-08 18:06 | 41.99556 | 19.44566 | 24496 ft | 411 kts | 338° |
| 2026-05-08 18:06 | 42.02266 | 19.43282 | 24886 ft | 414 kts | 338° |
| 2026-05-08 18:06 | 42.04990 | 19.41988 | 25280 ft | 416 kts | 338° |
| 2026-05-08 18:07 | 42.07728 | 19.40685 | 25679 ft | 419 kts | 338° |
| 2026-05-08 18:07 | 42.10483 | 19.39379 | 26046 ft | 421 kts | 338° |
| 2026-05-08 18:07 | 42.13259 | 19.38065 | 26422 ft | 424 kts | 338° |
| 2026-05-08 18:07 | 42.16018 | 19.36756 | 26786 ft | 426 kts | 338° |
| 2026-05-08 18:08 | 42.18859 | 19.35402 | 27162 ft | 429 kts | 338° |
| 2026-05-08 18:08 | 42.21644 | 19.34073 | 27515 ft | 431 kts | 338° |
| 2026-05-08 18:08 | 42.24472 | 19.32714 | 27881 ft | 434 kts | 337° |
| 2026-05-08 18:08 | 42.27317 | 19.31298 | 28252 ft | 436 kts | 337° |
| 2026-05-08 18:09 | 42.30156 | 19.29848 | 28609 ft | 438 kts | 336° |
| 2026-05-08 18:09 | 42.33005 | 19.28370 | 28952 ft | 440 kts | 336° |
| 2026-05-08 18:09 | 42.35837 | 19.26773 | 29293 ft | 441 kts | 330° |
| 2026-05-08 18:09 | 42.38455 | 19.24638 | 29616 ft | 440 kts | 321° |
| 2026-05-08 18:10 | 42.40789 | 19.21976 | 29944 ft | 439 kts | 313° |
| 2026-05-08 18:10 | 42.42841 | 19.18882 | 30223 ft | 440 kts | 308° |
| 2026-05-08 18:10 | 42.44844 | 19.15742 | 30486 ft | 442 kts | 309° |
| 2026-05-08 18:10 | 42.46864 | 19.12574 | 30754 ft | 444 kts | 309° |
| 2026-05-08 18:11 | 42.48884 | 19.09400 | 31002 ft | 446 kts | 308° |
| 2026-05-08 18:11 | 42.50913 | 19.06208 | 31282 ft | 448 kts | 308° |
| 2026-05-08 18:11 | 42.52925 | 19.03043 | 31616 ft | 448 kts | 309° |
| 2026-05-08 18:11 | 42.54957 | 18.99851 | 32001 ft | 447 kts | 309° |
| 2026-05-08 18:12 | 42.56988 | 18.96656 | 32401 ft | 446 kts | 308° |
| 2026-05-08 18:12 | 42.59009 | 18.93472 | 32759 ft | 445 kts | 308° |
| 2026-05-08 18:12 | 42.61024 | 18.90290 | 33147 ft | 444 kts | 308° |
| 2026-05-08 18:12 | 42.63031 | 18.87115 | 33521 ft | 443 kts | 308° |
| 2026-05-08 18:13 | 42.65027 | 18.83951 | 33883 ft | 442 kts | 308° |
| 2026-05-08 18:13 | 42.67029 | 18.80772 | 34216 ft | 442 kts | 308° |
| 2026-05-08 18:13 | 42.69025 | 18.77603 | 34536 ft | 441 kts | 308° |
| 2026-05-08 18:13 | 42.71023 | 18.74437 | 34824 ft | 440 kts | 308° |
| 2026-05-08 18:14 | 42.73015 | 18.71279 | 35130 ft | 439 kts | 308° |
| 2026-05-08 18:14 | 42.74997 | 18.68130 | 35468 ft | 438 kts | 308° |
| 2026-05-08 18:14 | 42.76969 | 18.64990 | 35788 ft | 436 kts | 308° |
| 2026-05-08 18:14 | 42.78934 | 18.61855 | 36111 ft | 434 kts | 308° |
| 2026-05-08 18:15 | 42.80886 | 18.58737 | 36429 ft | 432 kts | 308° |
| 2026-05-08 18:15 | 42.82828 | 18.55632 | 36736 ft | 430 kts | 308° |
| 2026-05-08 18:15 | 42.84762 | 18.52541 | 37032 ft | 428 kts | 308° |
| 2026-05-08 18:15 | 42.86691 | 18.49455 | 37329 ft | 427 kts | 308° |
| 2026-05-08 18:16 | 42.88610 | 18.46378 | 37625 ft | 425 kts | 308° |
| 2026-05-08 18:16 | 42.90522 | 18.43312 | 37918 ft | 424 kts | 308° |
| 2026-05-08 18:16 | 42.92431 | 18.40245 | 38031 ft | 423 kts | 307° |
| 2026-05-08 18:16 | 42.94330 | 18.37188 | 38026 ft | 422 kts | 307° |
| 2026-05-08 18:17 | 42.98120 | 18.31078 | 38026 ft | 421 kts | 307° |
| 2026-05-08 18:17 | 43.01897 | 18.24977 | 38027 ft | 421 kts | 307° |
| 2026-05-08 18:18 | 43.05684 | 18.18854 | 38027 ft | 421 kts | 307° |
| 2026-05-08 18:18 | 43.09435 | 18.12784 | 38021 ft | 421 kts | 307° |
| 2026-05-08 18:19 | 43.13221 | 18.06635 | 38016 ft | 421 kts | 307° |
| 2026-05-08 18:19 | 43.16989 | 18.00502 | 38010 ft | 421 kts | 307° |
| 2026-05-08 18:20 | 43.20749 | 17.94361 | 38011 ft | 421 kts | 307° |
| 2026-05-08 18:20 | 43.24523 | 17.88193 | 38002 ft | 422 kts | 307° |
| 2026-05-08 18:21 | 43.28257 | 17.81975 | 37997 ft | 422 kts | 306° |
| 2026-05-08 18:21 | 43.31871 | 17.75630 | 38026 ft | 422 kts | 305° |
| 2026-05-08 18:22 | 43.35462 | 17.69242 | 38040 ft | 422 kts | 305° |
| 2026-05-08 18:22 | 43.39067 | 17.62883 | 38041 ft | 422 kts | 305° |
| 2026-05-08 18:23 | 43.42074 | 17.57586 | 38047 ft | 422 kts | 305° |
| 2026-05-08 18:23 | 43.46262 | 17.50193 | 38046 ft | 421 kts | 305° |
| 2026-05-08 18:24 | 43.49262 | 17.44900 | 38046 ft | 421 kts | 305° |
| 2026-05-08 18:24 | 43.52852 | 17.38539 | 38061 ft | 421 kts | 305° |
| 2026-05-08 18:25 | 43.56431 | 17.32183 | 38060 ft | 420 kts | 305° |
| 2026-05-08 18:25 | 43.60008 | 17.25813 | 38054 ft | 420 kts | 305° |
| 2026-05-08 18:26 | 43.63587 | 17.19436 | 38053 ft | 420 kts | 305° |
| 2026-05-08 18:26 | 43.67181 | 17.13005 | 38054 ft | 420 kts | 305° |
| 2026-05-08 18:27 | 43.70153 | 17.07685 | 38055 ft | 420 kts | 305° |
| 2026-05-08 18:27 | 43.72482 | 17.03522 | 38068 ft | 405 kts | 304° |
| 2026-05-08 18:27 | 43.74178 | 17.00485 | 38055 ft | 394 kts | 304° |
| 2026-05-08 18:28 | 43.77554 | 16.94395 | 38045 ft | 405 kts | 304° |
| 2026-05-08 18:28 | 43.79289 | 16.91256 | 37798 ft | 414 kts | 304° |
| 2026-05-08 18:28 | 43.81048 | 16.88074 | 37612 ft | 420 kts | 304° |
| 2026-05-08 18:29 | 43.82826 | 16.84860 | 37769 ft | 421 kts | 304° |
| 2026-05-08 18:29 | 43.84615 | 16.81627 | 37964 ft | 421 kts | 304° |
| 2026-05-08 18:29 | 43.88179 | 16.75178 | 38066 ft | 421 kts | 304° |
| 2026-05-08 18:30 | 43.91738 | 16.68725 | 38043 ft | 421 kts | 304° |
| 2026-05-08 18:30 | 43.95278 | 16.62293 | 38046 ft | 422 kts | 304° |
| 2026-05-08 18:31 | 43.98828 | 16.55810 | 38049 ft | 422 kts | 304° |
| 2026-05-08 18:31 | 44.02376 | 16.49300 | 38055 ft | 422 kts | 302° |
| 2026-05-08 18:32 | 44.05259 | 16.42240 | 38072 ft | 419 kts | 295° |
| 2026-05-08 18:32 | 44.07970 | 16.35076 | 38071 ft | 419 kts | 295° |
| 2026-05-08 18:33 | 44.10680 | 16.27903 | 38073 ft | 418 kts | 295° |
| 2026-05-08 18:33 | 44.13390 | 16.20744 | 38066 ft | 418 kts | 295° |
| 2026-05-08 18:34 | 44.16089 | 16.13573 | 38079 ft | 418 kts | 295° |
| 2026-05-08 18:34 | 44.18781 | 16.06404 | 38077 ft | 418 kts | 295° |
| 2026-05-08 18:35 | 44.21453 | 15.99276 | 38074 ft | 417 kts | 295° |
| 2026-05-08 18:35 | 44.24139 | 15.92092 | 38073 ft | 418 kts | 295° |
| 2026-05-08 18:36 | 44.26822 | 15.84906 | 38073 ft | 418 kts | 295° |
| 2026-05-08 18:36 | 44.29503 | 15.77697 | 38090 ft | 418 kts | 295° |
| 2026-05-08 18:37 | 44.32179 | 15.70475 | 38083 ft | 419 kts | 295° |
| 2026-05-08 18:37 | 44.34851 | 15.63244 | 38078 ft | 419 kts | 295° |
| 2026-05-08 18:38 | 44.37523 | 15.55994 | 38077 ft | 419 kts | 295° |
| 2026-05-08 18:38 | 44.40192 | 15.48740 | 38089 ft | 420 kts | 295° |
| 2026-05-08 18:39 | 44.42855 | 15.41494 | 38081 ft | 419 kts | 295° |
| 2026-05-08 18:39 | 44.45517 | 15.34229 | 38079 ft | 419 kts | 295° |
| 2026-05-08 18:40 | 44.48172 | 15.26978 | 38078 ft | 419 kts | 295° |
| 2026-05-08 18:40 | 44.50537 | 15.20490 | 38077 ft | 419 kts | 294° |
| 2026-05-08 18:41 | 44.53176 | 15.13205 | 38084 ft | 418 kts | 294° |
| 2026-05-08 18:41 | 44.55810 | 15.05927 | 38083 ft | 418 kts | 294° |
| 2026-05-08 18:42 | 44.58440 | 14.98662 | 38083 ft | 418 kts | 294° |
| 2026-05-08 18:42 | 44.61042 | 14.91434 | 38072 ft | 418 kts | 294° |
| 2026-05-08 18:43 | 44.63652 | 14.84150 | 38068 ft | 418 kts | 294° |
| 2026-05-08 18:43 | 44.66270 | 14.76831 | 38063 ft | 419 kts | 294° |
| 2026-05-08 18:44 | 44.68888 | 14.69513 | 38063 ft | 419 kts | 294° |
| 2026-05-08 18:44 | 44.71019 | 14.61946 | 38056 ft | 416 kts | 283° |
| 2026-05-08 18:45 | 44.72477 | 14.54077 | 38061 ft | 416 kts | 283° |
| 2026-05-08 18:45 | 44.73950 | 14.46197 | 38069 ft | 417 kts | 283° |
| 2026-05-08 18:46 | 44.75422 | 14.38304 | 38069 ft | 416 kts | 283° |
| 2026-05-08 18:46 | 44.76871 | 14.30483 | 38067 ft | 416 kts | 283° |
| 2026-05-08 18:47 | 44.78323 | 14.22615 | 38060 ft | 415 kts | 283° |
| 2026-05-08 18:47 | 44.79771 | 14.14739 | 38070 ft | 415 kts | 283° |
| 2026-05-08 18:48 | 44.81217 | 14.06862 | 38063 ft | 415 kts | 283° |
| 2026-05-08 18:48 | 44.82659 | 13.99003 | 38078 ft | 415 kts | 283° |
| 2026-05-08 18:49 | 44.84086 | 13.91126 | 38076 ft | 414 kts | 282° |
| 2026-05-08 18:49 | 44.85500 | 13.83249 | 38075 ft | 414 kts | 282° |
| 2026-05-08 18:50 | 44.86918 | 13.75381 | 38084 ft | 414 kts | 283° |
| 2026-05-08 18:50 | 44.88332 | 13.67525 | 38077 ft | 413 kts | 283° |
| 2026-05-08 18:51 | 44.89733 | 13.59666 | 38077 ft | 413 kts | 282° |
| 2026-05-08 18:51 | 44.91123 | 13.51805 | 38077 ft | 413 kts | 282° |
| 2026-05-08 18:52 | 44.92502 | 13.44000 | 38079 ft | 412 kts | 282° |
| 2026-05-08 18:52 | 44.93882 | 13.36149 | 38081 ft | 412 kts | 282° |
| 2026-05-08 18:53 | 44.95254 | 13.28306 | 38078 ft | 411 kts | 282° |
| 2026-05-08 18:53 | 44.96623 | 13.20465 | 38080 ft | 411 kts | 282° |
| 2026-05-08 18:54 | 44.97982 | 13.12628 | 38078 ft | 411 kts | 282° |
| 2026-05-08 18:54 | 44.99333 | 13.04796 | 38088 ft | 410 kts | 282° |
| 2026-05-08 18:55 | 45.01292 | 12.93031 | 38082 ft | 409 kts | 282° |
| 2026-05-08 18:56 | 45.02576 | 12.85202 | 38081 ft | 409 kts | 282° |
| 2026-05-08 18:56 | 45.03873 | 12.77365 | 38075 ft | 409 kts | 282° |
| 2026-05-08 18:57 | 45.05160 | 12.69535 | 38084 ft | 409 kts | 282° |
| 2026-05-08 18:57 | 45.06445 | 12.61705 | 38071 ft | 408 kts | 282° |
| 2026-05-08 18:58 | 45.07714 | 12.53914 | 38074 ft | 408 kts | 281° |
| 2026-05-08 18:58 | 45.08987 | 12.46087 | 38065 ft | 408 kts | 281° |
| 2026-05-08 18:59 | 45.10255 | 12.38259 | 38074 ft | 408 kts | 281° |
| 2026-05-08 18:59 | 45.11520 | 12.30421 | 38070 ft | 409 kts | 281° |
| 2026-05-08 19:00 | 45.12564 | 12.23882 | 38068 ft | 409 kts | 281° |
| 2026-05-08 19:00 | 45.14029 | 12.14691 | 38059 ft | 409 kts | 281° |
| 2026-05-08 19:01 | 45.15269 | 12.06876 | 38059 ft | 409 kts | 281° |
| 2026-05-08 19:01 | 45.16507 | 11.99013 | 38066 ft | 409 kts | 281° |
| 2026-05-08 19:02 | 45.17740 | 11.91144 | 38069 ft | 409 kts | 281° |
| 2026-05-08 19:02 | 45.18969 | 11.83267 | 38067 ft | 409 kts | 281° |
| 2026-05-08 19:03 | 45.20196 | 11.75392 | 38068 ft | 409 kts | 281° |
| 2026-05-08 19:03 | 45.21416 | 11.67521 | 38066 ft | 408 kts | 281° |
| 2026-05-08 19:04 | 45.22622 | 11.59652 | 38063 ft | 408 kts | 281° |
| 2026-05-08 19:04 | 45.23830 | 11.51779 | 38061 ft | 408 kts | 281° |
| 2026-05-08 19:05 | 45.25029 | 11.43916 | 38062 ft | 408 kts | 281° |
| 2026-05-08 19:05 | 45.26221 | 11.36042 | 38060 ft | 408 kts | 281° |
| 2026-05-08 19:06 | 45.27408 | 11.28177 | 38063 ft | 408 kts | 281° |
| 2026-05-08 19:06 | 45.28596 | 11.20297 | 38065 ft | 408 kts | 281° |
| 2026-05-08 19:07 | 45.29773 | 11.12422 | 38067 ft | 408 kts | 281° |
| 2026-05-08 19:07 | 45.30945 | 11.04536 | 38068 ft | 408 kts | 281° |
| 2026-05-08 19:08 | 45.31921 | 10.97971 | 38064 ft | 408 kts | 281° |
| 2026-05-08 19:08 | 45.33087 | 10.90070 | 38067 ft | 408 kts | 281° |
| 2026-05-08 19:09 | 45.34438 | 10.80879 | 38064 ft | 408 kts | 281° |
| 2026-05-08 19:09 | 45.35395 | 10.74307 | 38065 ft | 408 kts | 281° |
| 2026-05-08 19:10 | 45.36539 | 10.66404 | 38064 ft | 408 kts | 280° |
| 2026-05-08 19:10 | 45.37768 | 10.58515 | 38067 ft | 409 kts | 282° |
| 2026-05-08 19:11 | 45.39159 | 10.50667 | 38078 ft | 409 kts | 283° |
| 2026-05-08 19:11 | 45.40558 | 10.42835 | 38075 ft | 409 kts | 283° |
| 2026-05-08 19:12 | 45.41918 | 10.34985 | 38075 ft | 409 kts | 282° |
| 2026-05-08 19:12 | 45.43248 | 10.27119 | 38045 ft | 408 kts | 282° |
| 2026-05-08 19:13 | 45.44574 | 10.19251 | 38041 ft | 408 kts | 282° |
| 2026-05-08 19:13 | 45.45899 | 10.11387 | 38044 ft | 408 kts | 282° |
| 2026-05-08 19:14 | 45.47217 | 10.03528 | 38052 ft | 408 kts | 282° |
| 2026-05-08 19:14 | 45.48542 | 9.95660 | 38059 ft | 408 kts | 283° |
| 2026-05-08 19:15 | 45.49925 | 9.87825 | 38072 ft | 408 kts | 283° |
| 2026-05-08 19:15 | 45.51317 | 9.79988 | 38071 ft | 408 kts | 283° |
| 2026-05-08 19:16 | 45.52686 | 9.72143 | 38066 ft | 408 kts | 283° |
| 2026-05-08 19:16 | 45.54047 | 9.64289 | 38089 ft | 408 kts | 283° |
| 2026-05-08 19:17 | 45.55401 | 9.56413 | 38088 ft | 409 kts | 283° |
| 2026-05-08 19:17 | 45.56747 | 9.48581 | 38090 ft | 409 kts | 283° |
| 2026-05-08 19:18 | 45.58100 | 9.40693 | 38092 ft | 409 kts | 283° |
| 2026-05-08 19:18 | 45.59450 | 9.32792 | 38075 ft | 410 kts | 282° |
| 2026-05-08 19:19 | 45.60791 | 9.24868 | 38070 ft | 411 kts | 282° |
| 2026-05-08 19:19 | 45.62130 | 9.16928 | 38066 ft | 411 kts | 282° |
| 2026-05-08 19:20 | 45.63463 | 9.08986 | 38069 ft | 411 kts | 282° |
| 2026-05-08 19:20 | 45.64716 | 9.01016 | 38061 ft | 411 kts | 277° |
| 2026-05-08 19:21 | 45.65506 | 8.92912 | 38058 ft | 411 kts | 277° |
| 2026-05-08 19:21 | 45.66278 | 8.84810 | 38061 ft | 411 kts | 277° |
| 2026-05-08 19:22 | 45.67038 | 8.76705 | 38068 ft | 412 kts | 277° |
| 2026-05-08 19:22 | 45.67806 | 8.68592 | 38069 ft | 412 kts | 277° |
| 2026-05-08 19:23 | 45.68569 | 8.60480 | 38074 ft | 412 kts | 277° |
| 2026-05-08 19:23 | 45.69328 | 8.52347 | 38075 ft | 412 kts | 277° |
| 2026-05-08 19:24 | 45.70072 | 8.44273 | 38081 ft | 412 kts | 277° |
| 2026-05-08 19:24 | 45.70812 | 8.36143 | 38095 ft | 412 kts | 277° |
| 2026-05-08 19:25 | 45.71550 | 8.27996 | 38098 ft | 413 kts | 277° |
| 2026-05-08 19:25 | 45.72278 | 8.19856 | 38105 ft | 412 kts | 277° |
| 2026-05-08 19:26 | 45.73008 | 8.11712 | 38115 ft | 412 kts | 277° |
| 2026-05-08 19:26 | 45.73727 | 8.03568 | 38113 ft | 412 kts | 277° |
| 2026-05-08 19:27 | 45.74452 | 7.95432 | 38113 ft | 412 kts | 277° |
| 2026-05-08 19:27 | 45.75172 | 7.87294 | 38119 ft | 412 kts | 277° |
| 2026-05-08 19:28 | 45.75880 | 7.79141 | 38122 ft | 412 kts | 276° |
| 2026-05-08 19:28 | 45.76580 | 7.70998 | 38001 ft | 412 kts | 276° |
| 2026-05-08 19:28 | 45.76926 | 7.66935 | 37525 ft | 409 kts | 276° |
| 2026-05-08 19:29 | 45.77270 | 7.62891 | 36879 ft | 408 kts | 276° |
| 2026-05-08 19:29 | 45.77610 | 7.58864 | 36241 ft | 407 kts | 276° |
| 2026-05-08 19:29 | 45.77948 | 7.54842 | 35509 ft | 407 kts | 276° |
| 2026-05-08 19:29 | 45.78286 | 7.50807 | 34730 ft | 409 kts | 276° |
| 2026-05-08 19:30 | 45.78627 | 7.46763 | 34032 ft | 409 kts | 276° |
| 2026-05-08 19:30 | 45.78965 | 7.42739 | 33454 ft | 404 kts | 277° |
| 2026-05-08 19:30 | 45.79289 | 7.38826 | 32904 ft | 398 kts | 277° |
| 2026-05-08 19:30 | 45.79608 | 7.34915 | 32349 ft | 393 kts | 277° |
| 2026-05-08 19:31 | 45.79924 | 7.31031 | 31804 ft | 390 kts | 277° |
| 2026-05-08 19:31 | 45.80239 | 7.27195 | 31264 ft | 386 kts | 277° |
| 2026-05-08 19:31 | 45.80552 | 7.23386 | 30743 ft | 383 kts | 278° |
| 2026-05-08 19:31 | 45.80860 | 7.19615 | 30217 ft | 380 kts | 278° |
| 2026-05-08 19:32 | 45.81164 | 7.15859 | 29643 ft | 377 kts | 278° |
| 2026-05-08 19:32 | 45.81462 | 7.12150 | 29146 ft | 372 kts | 278° |
| 2026-05-08 19:32 | 45.81806 | 7.08499 | 28652 ft | 366 kts | 283° |
| 2026-05-08 19:32 | 45.82544 | 7.05035 | 28169 ft | 362 kts | 293° |
| 2026-05-08 19:33 | 45.83718 | 7.01874 | 27714 ft | 358 kts | 303° |
| 2026-05-08 19:33 | 45.85130 | 6.98950 | 27256 ft | 355 kts | 303° |
| 2026-05-08 19:33 | 45.86530 | 6.96040 | 26808 ft | 352 kts | 303° |
| 2026-05-08 19:33 | 45.87908 | 6.93153 | 26372 ft | 349 kts | 303° |
| 2026-05-08 19:34 | 45.89269 | 6.90289 | 25948 ft | 345 kts | 303° |
| 2026-05-08 19:34 | 45.90614 | 6.87446 | 25493 ft | 344 kts | 303° |
| 2026-05-08 19:34 | 45.91952 | 6.84613 | 25072 ft | 342 kts | 303° |
| 2026-05-08 19:34 | 45.93285 | 6.81794 | 24642 ft | 340 kts | 303° |
| 2026-05-08 19:35 | 45.94612 | 6.78985 | 24199 ft | 339 kts | 303° |
| 2026-05-08 19:35 | 45.95940 | 6.76183 | 23757 ft | 339 kts | 303° |
| 2026-05-08 19:35 | 45.97259 | 6.73381 | 23283 ft | 338 kts | 302° |
| 2026-05-08 19:35 | 45.98564 | 6.70574 | 22829 ft | 337 kts | 302° |
| 2026-05-08 19:36 | 45.99856 | 6.67781 | 22390 ft | 335 kts | 302° |
| 2026-05-08 19:36 | 46.01141 | 6.64991 | 21939 ft | 333 kts | 302° |
| 2026-05-08 19:36 | 46.02420 | 6.62211 | 21503 ft | 332 kts | 301° |
| 2026-05-08 19:36 | 46.03693 | 6.59446 | 21066 ft | 330 kts | 301° |
| 2026-05-08 19:37 | 46.04956 | 6.56705 | 20645 ft | 328 kts | 301° |
| 2026-05-08 19:37 | 46.06222 | 6.53979 | 20194 ft | 327 kts | 302° |
| 2026-05-08 19:37 | 46.07505 | 6.51259 | 19765 ft | 327 kts | 302° |
| 2026-05-08 19:37 | 46.08786 | 6.48558 | 19348 ft | 326 kts | 302° |
| 2026-05-08 19:38 | 46.10069 | 6.45859 | 18920 ft | 326 kts | 302° |
| 2026-05-08 19:38 | 46.11352 | 6.43159 | 18499 ft | 327 kts | 302° |
| 2026-05-08 19:38 | 46.12617 | 6.40487 | 18044 ft | 327 kts | 301° |
| 2026-05-08 19:38 | 46.13911 | 6.37750 | 17613 ft | 325 kts | 301° |
| 2026-05-08 19:39 | 46.15162 | 6.35095 | 17207 ft | 324 kts | 301° |
| 2026-05-08 19:39 | 46.16428 | 6.32399 | 16754 ft | 324 kts | 301° |
| 2026-05-08 19:39 | 46.17560 | 6.29610 | 16315 ft | 320 kts | 288° |
| 2026-05-08 19:39 | 46.17988 | 6.26538 | 16104 ft | 308 kts | 268° |
| 2026-05-08 19:40 | 46.17674 | 6.23528 | 15838 ft | 304 kts | 250° |
| 2026-05-08 19:40 | 46.16658 | 6.20861 | 15373 ft | 304 kts | 229° |
| 2026-05-08 19:40 | 46.15189 | 6.18665 | 14927 ft | 306 kts | 225° |
| 2026-05-08 19:40 | 46.13711 | 6.16497 | 14650 ft | 300 kts | 225° |
| 2026-05-08 19:41 | 46.12266 | 6.14364 | 14039 ft | 297 kts | 225° |
| 2026-05-08 19:41 | 46.10832 | 6.12239 | 13334 ft | 295 kts | 225° |
| 2026-05-08 19:41 | 46.09412 | 6.10129 | 12754 ft | 290 kts | 225° |
| 2026-05-08 19:41 | 46.07995 | 6.08043 | 12269 ft | 292 kts | 225° |
| 2026-05-08 19:42 | 46.06569 | 6.05975 | 11954 ft | 290 kts | 225° |
| 2026-05-08 19:42 | 46.05145 | 6.03925 | 11397 ft | 287 kts | 225° |
| 2026-05-08 19:42 | 46.03742 | 6.01911 | 10860 ft | 282 kts | 225° |
| 2026-05-08 19:42 | 46.02363 | 5.99931 | 10389 ft | 279 kts | 225° |
| 2026-05-08 19:43 | 46.00989 | 5.97961 | 9917 ft | 278 kts | 225° |
| 2026-05-08 19:43 | 45.99610 | 5.95990 | 9414 ft | 281 kts | 225° |
| 2026-05-08 19:43 | 45.98224 | 5.94019 | 9101 ft | 278 kts | 225° |
| 2026-05-08 19:43 | 45.96859 | 5.92064 | 9074 ft | 276 kts | 225° |
| 2026-05-08 19:44 | 45.95506 | 5.90114 | 9073 ft | 276 kts | 225° |
| 2026-05-08 19:44 | 45.94147 | 5.88156 | 9068 ft | 276 kts | 225° |
| 2026-05-08 19:44 | 45.92791 | 5.86204 | 9070 ft | 276 kts | 225° |
| 2026-05-08 19:44 | 45.91433 | 5.84254 | 9064 ft | 276 kts | 225° |
| 2026-05-08 19:45 | 45.90076 | 5.82303 | 9065 ft | 276 kts | 225° |
| 2026-05-08 19:45 | 45.88829 | 5.80227 | 9053 ft | 275 kts | 240° |
| 2026-05-08 19:45 | 45.88265 | 5.77612 | 8884 ft | 277 kts | 266° |
| 2026-05-08 19:45 | 45.88598 | 5.74908 | 8625 ft | 279 kts | 293° |
| 2026-05-08 19:46 | 45.89771 | 5.72708 | 8365 ft | 282 kts | 320° |
| 2026-05-08 19:46 | 45.91537 | 5.71499 | 8108 ft | 285 kts | 347° |
| 2026-05-08 19:46 | 45.95249 | 5.72803 | 7764 ft | 279 kts | 33° |
| 2026-05-08 19:47 | 45.96835 | 5.74323 | 7619 ft | 269 kts | 33° |
| 2026-05-08 19:47 | 45.98369 | 5.75795 | 7398 ft | 261 kts | 33° |
| 2026-05-08 19:47 | 45.99852 | 5.77217 | 7260 ft | 252 kts | 33° |
| 2026-05-08 19:47 | 46.01299 | 5.78567 | 7134 ft | 243 kts | 33° |
| 2026-05-08 19:48 | 46.02609 | 5.80031 | 7041 ft | 235 kts | 42° |
| 2026-05-08 19:48 | 46.03785 | 5.81677 | 6696 ft | 240 kts | 45° |
| 2026-05-08 19:48 | 46.04962 | 5.83399 | 6355 ft | 243 kts | 45° |
| 2026-05-08 19:48 | 46.06151 | 5.85133 | 6012 ft | 244 kts | 45° |
| 2026-05-08 19:49 | 46.07344 | 5.86866 | 5685 ft | 244 kts | 46° |
| 2026-05-08 19:49 | 46.08536 | 5.88598 | 5362 ft | 242 kts | 46° |
| 2026-05-08 19:49 | 46.09705 | 5.90299 | 5048 ft | 235 kts | 46° |
| 2026-05-08 19:49 | 46.10837 | 5.91946 | 4744 ft | 227 kts | 46° |
| 2026-05-08 19:50 | 46.11929 | 5.93536 | 4449 ft | 220 kts | 46° |
| 2026-05-08 19:50 | 46.12991 | 5.95083 | 4175 ft | 214 kts | 46° |
| 2026-05-08 19:50 | 46.13673 | 5.96076 | 4001 ft | 210 kts | 47° |
| 2026-05-08 19:50 | 46.15036 | 5.98064 | 3599 ft | 202 kts | 46° |
| 2026-05-08 19:51 | 46.16007 | 5.99482 | 3347 ft | 196 kts | 46° |
| 2026-05-08 19:51 | 46.16638 | 6.00404 | 3187 ft | 192 kts | 46° |
| 2026-05-08 19:51 | 46.17544 | 6.01726 | 2930 ft | 179 kts | 46° |
| 2026-05-08 19:51 | 46.18387 | 6.02958 | 2703 ft | 166 kts | 47° |
| 2026-05-08 19:52 | 46.19172 | 6.04106 | 2501 ft | 153 kts | 47° |
| 2026-05-08 19:52 | 46.19883 | 6.05146 | 2298 ft | 148 kts | 47° |
| 2026-05-08 19:52 | 46.20592 | 6.06186 | 2095 ft | 144 kts | 47° |
| 2026-05-08 19:52 | 46.21286 | 6.07219 | 1891 ft | 142 kts | 46° |
| 2026-05-08 19:53 | 46.21983 | 6.08224 | 1703 ft | 141 kts | 44° |
| 2026-05-08 19:53 | 46.22668 | 6.09231 | 1478 ft | 140 kts | 44° |
| 2026-05-08 19:53 | 46.23329 | 6.10197 | 1404 ft | 126 kts | 44° |
| 2026-05-08 19:53 | 46.23793 | 6.10875 | 1380 ft | 56 kts | 45° |
| 2026-05-08 19:54 | 46.23865 | 6.11048 | 1378 ft | 13 kts | 121° |
| 2026-05-08 19:54 | 46.23805 | 6.11079 | 1380 ft | 5 kts | 172° |
| 2026-05-08 19:54 | 46.23787 | 6.11082 | 1378 ft | 2 kts | 172° |
| 2026-05-08 19:54 | 46.23776 | 6.11085 | 1381 ft | 2 kts | 172° |
| 2026-05-08 19:55 | 46.23735 | 6.11091 | 1385 ft | 6 kts | 178° |
| 2026-05-08 19:55 | 46.23713 | 6.11083 | 1386 ft | 4 kts | 204° |
| 2026-05-08 19:55 | 46.23679 | 6.11042 | 1389 ft | 6 kts | 225° |
| 2026-05-08 19:55 | 46.23648 | 6.10997 | 1387 ft | 8 kts | 226° |
| 2026-05-08 19:56 | 46.23611 | 6.10941 | 1376 ft | 7 kts | 226° |
| 2026-05-08 19:56 | 46.23576 | 6.10889 | 1389 ft | 8 kts | 226° |
| 2026-05-08 19:56 | 46.23540 | 6.10860 | 1399 ft | 4 kts | 161° |
| 2026-05-08 19:56 | 46.23520 | 6.10889 | 1401 ft | 8 kts | 134° |
| 2026-05-08 19:57 | 46.23501 | 6.10917 | 1395 ft | 0 kts | 135° |